Time;durP1;ratioP1;P1;durP2;ratioP2;P2;SDS_P1;SDS_P2;PMS_P1;PMS_P2;Temp;Humidity;BMP_temperature;BMP_pressure;BME280_temperature;BME280_humidity;BME280_pressure;Samples;Min_cycle;Max_cycle;Signal;HPM_P1;HPM_P2
2022/08/12 00:43:12;;;;;;;5.45;2.88;;;26.30;44.50;;;;;;2018732;29;20402;-82
2022/08/12 00:44:14;;;;;;;5.22;2.75;;;26.30;44.50;;;;;;2019738;29;20043;-82
2022/08/12 00:45:16;;;;;;;5.93;2.88;;;26.30;44.50;;;;;;2018853;29;20045;-82
2022/08/12 00:46:29;;;;;;;6.20;3.00;;;26.30;44.50;;;;;;2011274;29;20033;-82
2022/08/12 00:47:32;;;;;;;5.07;2.50;;;26.30;44.60;;;;;;2005899;29;20072;-82
2022/08/12 00:48:33;;;;;;;6.05;2.67;;;26.30;44.60;;;;;;2003880;29;20080;-82
2022/08/12 00:49:35;;;;;;;4.72;2.63;;;26.40;44.70;;;;;;2003966;29;20040;-82
2022/08/12 00:50:39;;;;;;;4.65;2.58;;;26.40;44.70;;;;;;2009662;29;20101;-82
2022/08/12 00:53:02;;;;;;;7.57;2.78;;;26.30;44.60;;;;;;2014170;29;20030;-81
2022/08/12 00:54:03;;;;;;;4.35;2.72;;;26.30;44.80;;;;;;2025020;29;20106;-81
2022/08/12 00:55:04;;;;;;;4.97;2.78;;;26.40;44.90;;;;;;2010688;29;20481;-82
2022/08/12 00:56:06;;;;;;;3.88;2.45;;;26.40;44.90;;;;;;2003956;29;20038;-81
2022/08/12 00:57:10;;;;;;;4.50;2.67;;;26.30;44.90;;;;;;2011499;29;20030;-81
2022/08/12 00:58:16;;;;;;;6.20;2.70;;;26.30;45.00;;;;;;2011573;29;20120;-82
2022/08/12 00:59:17;;;;;;;6.47;2.65;;;26.30;45.00;;;;;;2010701;29;20040;-82
2022/08/12 01:00:23;;;;;;;3.30;2.53;;;26.30;45.00;;;;;;2003835;29;20042;-83
2022/08/12 01:01:25;;;;;;;3.15;2.38;;;26.30;45.00;;;;;;2002511;29;20529;-82
2022/08/12 01:02:29;;;;;;;;;;;26.30;45.00;;;;;;2013725;29;20076;-82
2022/08/12 01:12:07;;;;;;;4.68;2.50;;;26.30;45.50;;;;;;2008746;29;20139;-81
2022/08/12 01:13:09;;;;;;;15.02;3.50;;;26.30;45.60;;;;;;2003607;29;20044;-82
2022/08/12 01:14:11;;;;;;;5.55;2.70;;;26.30;45.60;;;;;;2005159;29;20041;-83
2022/08/12 01:15:12;;;;;;;8.30;2.97;;;26.20;45.60;;;;;;2013632;29;20369;-82
2022/08/12 01:16:21;;;;;;;;;;;26.30;45.70;;;;;;2016780;29;20100;-82
2022/08/12 01:17:23;;;;;;;4.97;2.75;;;26.20;45.60;;;;;;2015012;29;20335;-82
2022/08/12 01:18:31;;;;;;;8.65;2.72;;;26.20;45.70;;;;;;2021456;29;20065;-82
2022/08/12 01:19:32;;;;;;;5.45;2.95;;;26.20;45.70;;;;;;2013737;29;20029;-82
2022/08/12 01:20:42;;;;;;;4.68;2.67;;;26.20;45.60;;;;;;2013852;29;20048;-81
2022/08/12 01:22:08;;;;;;;6.03;2.85;;;26.20;45.70;;;;;;2020205;29;20052;-81
2022/08/12 01:23:29;;;;;;;2.70;2.50;;;26.20;45.70;;;;;;2017014;29;20029;-81
2022/08/12 01:24:52;;;;;;;9.80;2.70;;;26.20;45.70;;;;;;2016412;29;20074;-81
2022/08/12 01:25:56;;;;;;;6.22;2.72;;;26.10;45.90;;;;;;2018949;29;20562;-81
2022/08/12 01:26:58;;;;;;;8.15;2.80;;;26.10;46.00;;;;;;2006793;29;20036;-81
2022/08/12 01:28:01;;;;;;;6.43;3.00;;;26.10;46.00;;;;;;2013092;29;20034;-82
2022/08/12 01:29:02;;;;;;;7.00;2.90;;;26.10;45.90;;;;;;2014016;29;20049;-82
2022/08/12 01:30:07;;;;;;;4.70;3.20;;;26.10;46.00;;;;;;2014102;29;20457;-82
2022/08/12 01:31:10;;;;;;;5.18;3.00;;;26.10;45.90;;;;;;2014126;29;20476;-82
2022/08/12 01:32:14;;;;;;;5.82;2.90;;;26.10;46.00;;;;;;1999339;29;20427;-81
2022/08/12 01:33:17;;;;;;;4.25;2.75;;;26.10;46.00;;;;;;2003578;29;20545;-82
2022/08/12 01:34:22;;;;;;;6.80;3.15;;;26.10;46.10;;;;;;2013396;29;20029;-82
2022/08/12 01:35:24;;;;;;;3.75;3.00;;;26.10;46.10;;;;;;2029258;29;20040;-82
2022/08/12 01:36:28;;;;;;;6.60;2.80;;;26.00;46.20;;;;;;2021670;29;20043;-82
2022/08/12 01:37:32;;;;;;;4.50;2.90;;;26.00;46.20;;;;;;2014018;29;20033;-81
2022/08/12 01:38:35;;;;;;;5.43;3.10;;;26.00;46.30;;;;;;2006593;29;20121;-82
2022/08/12 01:39:44;;;;;;;4.38;2.83;;;26.00;46.30;;;;;;2006923;29;20138;-83
2022/08/12 01:40:47;;;;;;;3.60;2.65;;;26.00;46.30;;;;;;1998734;29;20129;-82
2022/08/12 01:41:53;;;;;;;6.88;2.92;;;26.00;46.30;;;;;;2002060;29;20033;-82
2022/08/12 01:42:57;;;;;;;7.07;3.10;;;26.00;46.90;;;;;;2006948;29;20025;-81
2022/08/12 01:44:01;;;;;;;4.70;3.22;;;26.00;46.40;;;;;;2014387;29;20022;-81
2022/08/12 01:45:02;;;;;;;5.13;2.80;;;26.00;46.30;;;;;;2015413;29;20055;-81
2022/08/12 01:46:37;;;;;;;7.68;3.05;;;26.00;46.30;;;;;;2014005;29;20037;-81
2022/08/12 01:48:04;;;;;;;5.45;2.85;;;26.00;46.30;;;;;;2009186;29;20033;-81
2022/08/12 01:49:32;;;;;;;5.82;3.05;;;26.00;46.30;;;;;;2012733;29;20033;-82
2022/08/12 01:50:49;;;;;;;14.23;3.35;;;25.90;46.30;;;;;;2021049;29;20040;-82
2022/08/12 01:52:02;;;;;;;9.35;3.25;;;25.90;46.30;;;;;;2015360;29;20123;-81
2022/08/12 01:53:05;;;;;;;5.50;3.40;;;26.00;46.40;;;;;;2021348;29;20029;-82
2022/08/12 01:54:12;;;;;;;5.05;3.17;;;26.00;46.30;;;;;;2020024;29;20037;-81
2022/08/12 01:55:16;;;;;;;4.50;2.90;;;25.90;46.20;;;;;;2014215;29;20033;-80
2022/08/12 01:56:22;;;;;;;7.28;3.10;;;25.90;46.40;;;;;;2013367;29;20413;-80
2022/08/12 01:57:43;;;;;;;5.85;3.50;;;25.90;46.40;;;;;;2006810;29;20503;-80
2022/08/12 02:00:15;;;;;;;7.03;3.47;;;25.90;46.60;;;;;;2015894;29;20033;-81
2022/08/12 02:01:19;;;;;;;7.45;3.40;;;25.90;46.70;;;;;;2012388;29;20037;-82
2022/08/12 02:02:35;;;;;;;5.72;3.70;;;25.90;46.70;;;;;;2013761;29;20025;-81
2022/08/12 02:11:51;;;;;;;3.42;3.00;;;25.90;46.80;;;;;;2009592;29;20414;-81
2022/08/12 02:13:30;;;;;;;7.20;3.20;;;25.80;46.80;;;;;;2009562;29;20037;-83
2022/08/12 02:15:11;;;;;;;5.13;2.97;;;25.80;46.80;;;;;;1996736;29;20061;-82
2022/08/12 02:16:45;;;;;;;3.80;2.80;;;25.80;46.90;;;;;;1996138;29;20054;-82
2022/08/12 02:18:18;;;;;;;3.35;2.80;;;25.80;47.00;;;;;;2015411;29;20049;-81
2022/08/12 02:19:57;;;;;;;7.53;3.05;;;25.80;47.10;;;;;;1996516;29;20066;-81
2022/08/12 02:21:12;;;;;;;8.65;3.20;;;25.70;47.20;;;;;;1982546;29;20035;-81
2022/08/12 02:22:35;;;;;;;6.43;3.25;;;25.70;47.30;;;;;;1974306;30;20054;-81
2022/08/12 02:23:38;;;;;;;6.00;3.38;;;25.70;47.20;;;;;;1965468;30;20078;-81
2022/08/12 02:24:41;;;;;;;5.95;3.17;;;25.70;47.30;;;;;;1974361;30;20043;-81
2022/08/12 02:25:46;;;;;;;10.20;3.03;;;25.70;47.20;;;;;;1974111;30;20043;-81
2022/08/12 02:26:48;;;;;;;5.30;3.03;;;25.70;47.30;;;;;;1992514;29;20536;-81
2022/08/12 02:27:53;;;;;;;4.80;2.90;;;25.70;47.40;;;;;;2011505;29;20034;-81
2022/08/12 02:28:54;;;;;;;4.93;3.03;;;25.60;47.20;;;;;;2019249;29;20032;-81
2022/08/12 02:29:56;;;;;;;5.97;2.95;;;25.60;47.20;;;;;;2023177;29;20036;-81
2022/08/12 02:31:03;;;;;;;6.18;2.72;;;25.60;47.20;;;;;;2019851;29;20478;-81
2022/08/12 02:32:05;;;;;;;7.05;3.20;;;25.70;47.30;;;;;;2012032;29;20033;-81
2022/08/12 02:33:06;;;;;;;3.70;2.50;;;25.70;47.30;;;;;;2004482;29;20102;-81
2022/08/12 02:34:10;;;;;;;6.27;3.23;;;25.60;47.40;;;;;;2011053;29;20549;-82
2022/08/12 02:35:13;;;;;;;4.90;3.22;;;25.60;47.50;;;;;;2020341;29;20263;-82
2022/08/12 02:36:15;;;;;;;9.73;3.45;;;25.60;47.50;;;;;;2027140;29;20032;-82
2022/08/12 02:37:19;;;;;;;5.72;3.05;;;25.60;47.40;;;;;;2027418;29;20037;-82
2022/08/12 02:38:22;;;;;;;7.07;3.10;;;25.60;47.40;;;;;;2004893;29;20460;-82
2022/08/12 02:39:26;;;;;;;12.00;3.72;;;25.60;47.40;;;;;;2004863;29;20048;-82
2022/08/12 02:40:28;;;;;;;9.27;3.45;;;25.60;47.50;;;;;;2012609;29;20041;-82
2022/08/12 02:41:33;;;;;;;4.60;3.10;;;25.60;47.50;;;;;;2018748;29;20045;-82
2022/08/12 02:42:35;;;;;;;4.45;3.17;;;25.60;47.60;;;;;;2012595;29;20551;-81
2022/08/12 02:43:44;;;;;;;5.28;3.25;;;25.60;47.60;;;;;;2019577;29;20025;-82
2022/08/12 02:44:49;;;;;;;6.78;3.13;;;25.60;47.60;;;;;;2019733;29;20041;-81
2022/08/12 02:46:03;;;;;;;6.93;3.50;;;25.50;47.60;;;;;;2019542;29;20029;-81
2022/08/12 02:47:06;;;;;;;5.43;3.40;;;25.50;47.70;;;;;;2011892;29;20074;-82
2022/08/12 02:48:09;;;;;;;8.95;3.45;;;25.50;47.70;;;;;;2003550;29;20530;-81
2022/08/12 02:49:18;;;;;;;7.93;3.47;;;25.50;47.70;;;;;;2012256;29;20061;-81
2022/08/12 02:50:21;;;;;;;8.02;3.38;;;25.50;47.80;;;;;;2019964;29;20492;-81
2022/08/12 02:51:28;;;;;;;5.53;3.00;;;25.50;47.80;;;;;;2012042;29;20069;-81
2022/08/12 02:52:31;;;;;;;4.75;2.88;;;25.50;47.90;;;;;;2005603;29;20045;-81
2022/08/12 02:53:33;;;;;;;5.13;3.85;;;25.40;47.90;;;;;;2019548;29;20032;-81
2022/08/12 02:54:35;;;;;;;6.03;3.40;;;25.40;47.90;;;;;;2010875;29;20026;-81
2022/08/12 02:55:36;;;;;;;5.85;3.42;;;25.40;47.90;;;;;;2004814;29;20106;-82
2022/08/12 02:56:40;;;;;;;5.97;3.42;;;25.40;48.00;;;;;;2019535;29;20117;-81
2022/08/12 02:57:43;;;;;;;6.95;3.55;;;25.40;48.00;;;;;;2011460;29;20169;-82
2022/08/12 02:58:45;;;;;;;6.03;3.40;;;25.40;48.00;;;;;;2014524;29;20052;-81
2022/08/12 02:59:47;;;;;;;;;;;25.40;48.10;;;;;;2020097;29;20039;-82
2022/08/12 03:00:48;;;;;;;5.82;3.40;;;25.40;48.00;;;;;;2025929;29;19908;-82
2022/08/12 03:01:53;;;;;;;7.28;3.50;;;25.40;48.10;;;;;;2012057;29;20041;-82
2022/08/12 03:02:59;;;;;;;5.35;3.65;;;25.40;48.10;;;;;;2004491;29;20131;-81
2022/08/12 03:04:09;;;;;;;6.90;3.03;;;25.40;48.10;;;;;;2012474;29;20104;-81
2022/08/12 03:05:14;;;;;;;7.13;3.38;;;25.40;48.00;;;;;;2011763;29;20037;-81
2022/08/12 03:06:20;;;;;;;5.28;3.08;;;25.40;47.80;;;;;;2005126;29;20034;-81
2022/08/12 03:07:34;;;;;;;5.45;2.85;;;25.30;47.60;;;;;;2007613;29;20030;-81
2022/08/12 03:08:39;;;;;;;4.18;2.63;;;25.30;47.30;;;;;;2007318;29;20037;-80
2022/08/12 03:09:51;;;;;;;4.80;2.70;;;25.30;47.20;;;;;;2016455;29;20088;-81
2022/08/12 03:10:57;;;;;;;4.25;3.10;;;25.20;47.00;;;;;;2019395;29;20483;-81
2022/08/12 03:12:03;;;;;;;4.32;2.80;;;25.20;46.80;;;;;;2004723;29;20034;-81
2022/08/12 03:13:06;;;;;;;5.18;3.05;;;25.30;46.80;;;;;;2005259;29;20098;-81
2022/08/12 03:14:14;;;;;;;5.28;3.13;;;25.30;46.70;;;;;;2003149;29;20102;-80
2022/08/12 03:15:17;;;;;;;4.10;2.70;;;25.30;46.70;;;;;;2005083;29;20034;-81
2022/08/12 03:16:22;;;;;;;5.53;3.08;;;25.20;46.60;;;;;;2000097;29;20072;-81
2022/08/12 03:17:35;;;;;;;5.60;2.97;;;25.20;46.50;;;;;;2012711;29;20052;-82
2022/08/12 03:18:40;;;;;;;5.18;2.88;;;25.20;46.30;;;;;;2004108;29;20041;-81
2022/08/12 03:19:44;;;;;;;5.30;2.60;;;25.20;46.40;;;;;;2000710;29;20030;-80
2022/08/12 03:20:45;;;;;;;4.75;2.90;;;25.20;47.00;;;;;;2003438;29;20034;-81
2022/08/12 03:21:50;;;;;;;5.60;2.92;;;25.10;46.30;;;;;;2011495;29;20061;-81
2022/08/12 03:22:51;;;;;;;4.05;2.78;;;25.10;46.20;;;;;;2011452;29;20208;-80
2022/08/12 03:23:54;;;;;;;3.08;2.42;;;25.00;46.00;;;;;;2011644;29;20030;-81
2022/08/12 03:24:57;;;;;;;5.10;2.85;;;25.00;46.00;;;;;;2015893;29;20029;-80
2022/08/12 03:26:00;;;;;;;6.50;3.22;;;25.00;46.00;;;;;;2019415;29;20115;-81
2022/08/12 03:27:04;;;;;;;6.13;2.92;;;25.00;45.90;;;;;;2018912;29;20364;-80
2022/08/12 03:28:09;;;;;;;5.40;3.03;;;25.00;45.80;;;;;;2003082;29;20033;-81
2022/08/12 03:29:11;;;;;;;6.45;2.92;;;25.00;45.80;;;;;;2004425;29;20125;-81
2022/08/12 03:30:12;;;;;;;;;;;25.00;45.90;;;;;;2012144;29;20514;-80
2022/08/12 03:31:13;;;;;;;3.90;2.70;;;24.90;45.70;;;;;;2019253;29;20000;-81
2022/08/12 03:32:14;;;;;;;4.57;3.07;;;24.90;45.90;;;;;;2019426;29;20033;-80
2022/08/12 03:33:16;;;;;;;6.13;2.70;;;24.90;45.90;;;;;;2014358;29;20260;-81
2022/08/12 03:34:28;;;;;;;3.85;2.83;;;24.90;45.70;;;;;;2018167;29;20048;-81
2022/08/12 03:35:32;;;;;;;4.32;2.97;;;24.90;45.70;;;;;;2012840;29;20081;-81
2022/08/12 03:36:35;;;;;;;4.80;3.10;;;24.80;45.70;;;;;;2011591;29;20457;-80
2022/08/12 03:37:37;;;;;;;5.15;2.70;;;24.90;45.60;;;;;;2011507;29;20038;-80
2022/08/12 03:38:42;;;;;;;4.43;2.60;;;24.80;45.70;;;;;;2011342;29;20025;-81
2022/08/12 03:39:44;;;;;;;3.72;2.83;;;24.80;45.60;;;;;;2004274;29;20057;-80
2022/08/12 03:42:34;;;;;;;7.18;2.70;;;24.80;45.60;;;;;;2019288;29;20050;-80
2022/08/12 04:00:23;;;;;;;9.07;2.85;;;24.80;46.80;;;;;;2013622;29;20029;-80
2022/08/12 04:01:24;;;;;;;6.40;2.90;;;24.80;46.10;;;;;;2018274;29;20101;-80
2022/08/12 04:02:25;;;;;;;6.32;2.88;;;24.80;46.00;;;;;;2018964;29;20391;-80
2022/08/12 04:04:46;;;;;;;6.47;3.15;;;24.80;46.30;;;;;;2013668;29;20545;-81
2022/08/12 04:05:48;;;;;;;4.80;2.78;;;24.80;46.20;;;;;;2003821;29;20040;-81
2022/08/12 04:06:49;;;;;;;9.07;2.85;;;24.80;46.30;;;;;;2003889;29;20057;-81
2022/08/12 04:07:51;;;;;;;8.55;3.38;;;24.80;46.30;;;;;;2010569;29;20060;-81
2022/08/12 04:08:56;;;;;;;5.38;3.40;;;24.80;46.20;;;;;;2013783;29;20036;-81
2022/08/12 04:09:57;;;;;;;5.95;3.33;;;24.80;46.20;;;;;;2004225;29;20030;-81
2022/08/12 04:13:37;;;;;;;4.40;2.90;;;24.70;46.00;;;;;;2006085;29;20102;-81
2022/08/12 04:14:39;;;;;;;5.70;3.10;;;24.70;46.10;;;;;;2002731;29;20117;-81
2022/08/12 04:15:42;;;;;;;;;;;24.70;46.10;;;;;;2001655;29;20072;-81
2022/08/12 04:16:43;;;;;;;5.95;2.60;;;24.60;45.90;;;;;;2019083;29;19968;-81
2022/08/12 04:17:46;;;;;;;8.45;3.28;;;24.60;46.00;;;;;;2018901;29;20022;-81
2022/08/12 04:18:47;;;;;;;9.52;3.20;;;24.60;46.10;;;;;;2019208;29;20136;-81
2022/08/12 04:19:48;;;;;;;5.23;2.80;;;24.60;45.90;;;;;;2018765;29;20132;-80
2022/08/12 04:20:49;;;;;;;5.70;2.85;;;24.60;46.00;;;;;;2010056;29;20025;-81
2022/08/12 04:21:54;;;;;;;3.90;3.17;;;24.60;46.10;;;;;;2018666;29;20061;-80
2022/08/12 04:22:55;;;;;;;6.60;3.10;;;24.50;46.00;;;;;;2003846;29;20022;-80
2022/08/12 04:23:57;;;;;;;5.72;3.08;;;24.50;46.10;;;;;;2011170;29;20112;-80
2022/08/12 04:25:01;;;;;;;3.83;2.78;;;24.50;46.20;;;;;;2018811;29;20093;-81
2022/08/12 04:26:02;;;;;;;4.32;2.78;;;24.50;46.20;;;;;;2018729;29;20032;-81
2022/08/12 04:27:09;;;;;;;4.32;2.85;;;24.50;46.20;;;;;;2003524;29;20402;-80
2022/08/12 04:28:11;;;;;;;6.93;2.70;;;24.40;46.20;;;;;;2007422;29;20029;-80
2022/08/12 04:29:12;;;;;;;4.13;2.75;;;24.40;46.30;;;;;;1999139;29;20041;-81
2022/08/12 04:30:13;;;;;;;6.47;3.10;;;24.40;46.30;;;;;;1999718;29;20081;-80
2022/08/12 04:31:13;;;;;;;3.40;2.63;;;24.40;46.40;;;;;;2015204;29;20055;-81
2022/08/12 04:32:14;;;;;;;8.00;2.97;;;24.40;46.40;;;;;;2025212;29;20029;-81
2022/08/12 04:33:17;;;;;;;4.13;2.83;;;24.40;46.30;;;;;;2018850;29;20025;-81
2022/08/12 04:34:18;;;;;;;9.85;2.80;;;24.30;46.40;;;;;;2025567;29;20127;-80
2022/08/12 04:35:19;;;;;;;5.53;2.88;;;24.30;46.30;;;;;;2018643;29;20032;-80
2022/08/12 04:36:20;;;;;;;7.30;2.88;;;24.30;46.30;;;;;;2018646;29;20080;-81
2022/08/12 04:37:22;;;;;;;6.78;2.75;;;24.40;46.40;;;;;;2011096;29;20372;-81
2022/08/12 04:38:24;;;;;;;6.97;3.30;;;24.30;46.40;;;;;;2003507;29;20030;-80
2022/08/12 04:39:25;;;;;;;6.28;2.88;;;24.30;46.40;;;;;;2011164;29;20501;-81
2022/08/12 04:40:29;;;;;;;4.97;2.88;;;24.30;46.40;;;;;;2010621;29;20048;-80
2022/08/12 04:41:31;;;;;;;7.60;2.50;;;24.40;46.30;;;;;;2018142;29;20377;-81
2022/08/12 04:42:32;;;;;;;;;;;24.40;46.30;;;;;;2018894;29;20037;-81
2022/08/12 04:43:32;;;;;;;4.25;3.00;;;24.40;46.30;;;;;;2010969;29;19916;-82
2022/08/12 04:44:33;;;;;;;5.43;3.00;;;24.40;46.30;;;;;;2011066;29;20044;-80
2022/08/12 04:45:37;;;;;;;4.77;2.80;;;24.40;46.30;;;;;;2018723;29;20068;-81
2022/08/12 04:46:38;;;;;;;3.72;2.88;;;24.40;46.40;;;;;;2026090;29;20036;-82
2022/08/12 04:47:38;;;;;;;5.97;2.87;;;24.40;46.40;;;;;;2017611;29;20056;-82
2022/08/12 04:48:40;;;;;;;4.10;2.93;;;24.40;46.40;;;;;;2003628;29;20261;-81
2022/08/12 04:49:44;;;;;;;4.28;3.38;;;24.40;46.40;;;;;;2011545;29;20133;-81
2022/08/12 04:50:45;;;;;;;6.78;2.75;;;24.40;46.40;;;;;;2011221;29;20033;-81
2022/08/12 04:51:47;;;;;;;3.53;2.58;;;24.40;46.40;;;;;;2018805;29;20025;-81
2022/08/12 04:52:48;;;;;;;4.65;2.58;;;24.40;46.30;;;;;;2026282;29;20028;-81
2022/08/12 04:53:50;;;;;;;6.18;3.03;;;24.30;46.30;;;;;;2006238;29;20349;-81
2022/08/12 04:54:51;;;;;;;5.30;2.80;;;24.30;46.40;;;;;;2010502;29;20128;-81
2022/08/12 04:55:53;;;;;;;7.30;3.03;;;24.30;46.40;;;;;;2011405;29;20025;-80
2022/08/12 04:56:54;;;;;;;4.45;2.58;;;24.30;46.30;;;;;;2003554;29;20026;-81
2022/08/12 04:57:55;;;;;;;9.03;3.10;;;24.30;46.30;;;;;;2011319;29;20109;-81
2022/08/12 04:58:57;;;;;;;8.32;2.85;;;24.30;46.20;;;;;;2003945;29;20030;-81
2022/08/12 04:59:58;;;;;;;8.88;2.85;;;24.30;46.20;;;;;;2004286;29;20061;-81
2022/08/12 05:01:02;;;;;;;6.37;3.00;;;24.30;46.30;;;;;;2002720;29;20034;-81
2022/08/12 05:02:03;;;;;;;7.28;2.95;;;24.30;46.20;;;;;;2007014;29;20038;-81
2022/08/12 05:03:06;;;;;;;3.70;2.65;;;24.30;46.30;;;;;;2003984;29;20162;-81
2022/08/12 05:04:08;;;;;;;6.93;2.60;;;24.30;46.20;;;;;;2011679;29;20040;-81
2022/08/12 05:05:21;;;;;;;5.32;2.53;;;24.30;46.20;;;;;;2021208;29;20022;-82
2022/08/12 05:06:22;;;;;;;8.20;3.17;;;24.30;46.30;;;;;;2013101;29;20445;-82
2022/08/12 05:07:23;;;;;;;5.90;2.67;;;24.30;46.40;;;;;;2011459;29;20044;-82
2022/08/12 05:08:25;;;;;;;6.50;2.53;;;24.30;46.40;;;;;;2010831;29;20037;-81
2022/08/12 05:09:26;;;;;;;5.82;2.45;;;24.30;46.40;;;;;;2011510;29;20896;-81
2022/08/12 05:10:27;;;;;;;6.85;2.92;;;24.30;46.40;;;;;;2003857;29;20150;-81
2022/08/12 05:11:27;;;;;;;6.93;2.67;;;24.30;46.40;;;;;;2019167;29;20037;-81
2022/08/12 05:12:41;;;;;;;5.22;2.50;;;24.20;46.40;;;;;;2012542;29;20038;-81
2022/08/12 05:13:44;;;;;;;7.65;2.97;;;24.20;46.40;;;;;;2008289;29;20041;-81
2022/08/12 05:14:45;;;;;;;5.32;2.63;;;24.20;46.30;;;;;;2010816;29;20093;-81
2022/08/12 05:15:46;;;;;;;5.75;2.60;;;24.20;46.30;;;;;;2011666;29;20029;-81
2022/08/12 05:16:47;;;;;;;6.07;2.50;;;24.20;46.30;;;;;;2011581;29;20038;-80
2022/08/12 05:17:48;;;;;;;3.73;2.50;;;24.20;46.30;;;;;;2011436;29;20037;-80
2022/08/12 05:18:48;;;;;;;6.67;2.67;;;24.20;46.30;;;;;;2003885;29;20033;-79
2022/08/12 05:19:49;;;;;;;6.27;2.77;;;24.20;46.30;;;;;;2011495;29;20079;-80
2022/08/12 05:20:50;;;;;;;4.83;3.10;;;24.20;46.30;;;;;;2008233;29;20034;-81
2022/08/12 05:21:51;;;;;;;7.78;3.22;;;24.20;46.30;;;;;;2010841;29;20397;-81
2022/08/12 05:23:08;;;;;;;4.75;2.90;;;24.20;46.40;;;;;;2011307;29;20053;-81
2022/08/12 05:24:09;;;;;;;4.57;2.78;;;24.10;46.30;;;;;;2013345;29;20445;-80
2022/08/12 05:25:10;;;;;;;4.10;2.93;;;24.10;46.40;;;;;;2011670;29;20033;-80
2022/08/12 05:26:11;;;;;;;;;;;24.10;46.40;;;;;;2004744;29;20477;-81
2022/08/12 05:27:12;;;;;;;5.45;2.72;;;24.10;46.40;;;;;;2013474;29;19980;-81
2022/08/12 05:28:17;;;;;;;3.78;2.65;;;24.10;46.40;;;;;;2010427;29;20034;-81
2022/08/12 05:29:18;;;;;;;4.95;2.88;;;24.10;46.40;;;;;;2004515;29;20485;-80
2022/08/12 05:30:19;;;;;;;5.07;2.63;;;24.10;46.40;;;;;;2011418;29;20033;-80
2022/08/12 05:31:20;;;;;;;5.22;2.88;;;24.00;46.40;;;;;;2003882;29;20083;-81
2022/08/12 05:32:24;;;;;;;5.60;2.55;;;24.00;46.50;;;;;;2003958;29;20053;-81
2022/08/12 05:33:30;;;;;;;4.20;2.78;;;24.00;46.50;;;;;;2004040;29;20077;-81
2022/08/12 05:34:33;;;;;;;6.72;2.85;;;24.10;46.50;;;;;;2015282;29;20121;-82
2022/08/12 05:35:40;;;;;;;6.22;2.80;;;24.10;46.50;;;;;;2011575;29;20029;-82
2022/08/12 05:36:42;;;;;;;6.97;2.67;;;24.10;46.60;;;;;;2011230;29;20385;-82
2022/08/12 05:37:43;;;;;;;5.82;2.90;;;24.10;46.60;;;;;;2004101;29;20030;-82
2022/08/12 05:38:58;;;;;;;9.43;3.20;;;24.10;46.70;;;;;;2018719;29;20295;-82
2022/08/12 05:39:59;;;;;;;6.88;3.17;;;24.10;46.70;;;;;;2011542;29;20041;-81
2022/08/12 05:41:02;;;;;;;7.72;2.90;;;24.00;46.80;;;;;;2009568;29;20060;-81
2022/08/12 05:42:03;;;;;;;4.88;2.95;;;24.00;46.80;;;;;;2011697;29;20033;-82
2022/08/12 05:43:05;;;;;;;6.25;2.95;;;24.00;46.80;;;;;;2011231;29;20033;-81
2022/08/12 05:44:15;;;;;;;5.82;2.60;;;24.10;46.90;;;;;;2004763;29;20034;-82
2022/08/12 05:45:15;;;;;;;5.78;3.35;;;24.10;46.90;;;;;;2012497;29;20038;-82
2022/08/12 05:46:17;;;;;;;6.57;2.97;;;24.00;46.90;;;;;;2018975;29;20029;-81
2022/08/12 05:47:17;;;;;;;7.63;3.17;;;24.00;46.90;;;;;;2018812;29;20092;-82
2022/08/12 05:48:18;;;;;;;6.90;2.70;;;24.00;47.00;;;;;;2018066;29;20036;-81
2022/08/12 05:49:19;;;;;;;3.77;2.83;;;24.00;47.00;;;;;;2018801;29;20417;-81
2022/08/12 05:50:20;;;;;;;5.37;3.30;;;24.00;46.90;;;;;;2011784;29;20516;-81
2022/08/12 05:51:25;;;;;;;9.93;3.03;;;24.00;47.00;;;;;;2011246;29;20388;-82
2022/08/12 05:52:26;;;;;;;9.80;3.20;;;24.00;46.90;;;;;;2004884;29;20030;-81
2022/08/12 05:53:27;;;;;;;6.07;2.80;;;24.00;47.00;;;;;;2005127;29;20065;-81
2022/08/12 05:54:28;;;;;;;7.10;3.05;;;24.00;47.00;;;;;;2006689;29;20033;-82
2022/08/12 05:55:30;;;;;;;5.07;3.27;;;23.90;47.00;;;;;;2005025;29;20118;-80
2022/08/12 05:56:32;;;;;;;;;;;23.90;47.10;;;;;;2013783;29;20025;-80
2022/08/12 05:57:32;;;;;;;8.70;3.30;;;23.90;47.20;;;;;;2019997;29;19971;-80
2022/08/12 05:58:33;;;;;;;4.10;2.90;;;23.90;47.40;;;;;;2019317;29;20041;-80
2022/08/12 05:59:34;;;;;;;5.47;2.73;;;23.80;47.40;;;;;;2027808;29;20025;-80
2022/08/12 06:00:35;;;;;;;5.23;2.57;;;23.80;47.50;;;;;;2027541;29;20028;-80
2022/08/12 06:01:37;;;;;;;8.38;2.70;;;23.80;47.50;;;;;;2025377;29;20259;-81
2022/08/12 06:02:40;;;;;;;5.55;2.63;;;23.80;47.70;;;;;;2012114;29;20033;-81
2022/08/12 06:03:41;;;;;;;5.75;2.75;;;23.70;47.60;;;;;;2020225;29;20039;-82
2022/08/12 06:04:42;;;;;;;5.05;2.85;;;23.70;47.80;;;;;;2012547;29;20469;-82
2022/08/12 06:05:45;;;;;;;7.28;3.20;;;23.70;47.90;;;;;;2020232;29;20025;-81
2022/08/12 06:06:50;;;;;;;3.20;2.25;;;23.70;47.90;;;;;;2013161;29;20483;-80
2022/08/12 06:07:56;;;;;;;3.63;2.88;;;23.70;47.90;;;;;;2006133;29;20603;-81
2022/08/12 06:08:57;;;;;;;4.60;2.72;;;23.70;47.90;;;;;;2012847;29;20030;-80
2022/08/12 06:09:58;;;;;;;5.07;2.87;;;23.70;47.90;;;;;;2005231;29;20025;-80
2022/08/12 06:11:00;;;;;;;6.80;2.97;;;23.70;48.00;;;;;;2005073;29;20067;-79
2022/08/12 06:12:01;;;;;;;6.35;2.55;;;23.60;48.10;;;;;;2005159;29;20026;-79
2022/08/12 06:13:06;;;;;;;4.30;2.70;;;23.60;48.20;;;;;;1997308;29;20034;-79
2022/08/12 06:14:07;;;;;;;5.05;2.70;;;23.60;48.20;;;;;;2005291;29;20029;-80
2022/08/12 06:15:09;;;;;;;7.57;2.80;;;23.60;48.10;;;;;;2020317;29;20357;-80
2022/08/12 06:16:14;;;;;;;6.55;3.13;;;23.60;48.20;;;;;;2012838;29;20532;-81
2022/08/12 06:17:15;;;;;;;5.55;2.40;;;23.60;48.20;;;;;;2013193;29;20033;-79
2022/08/12 06:18:17;;;;;;;6.30;2.80;;;23.60;48.30;;;;;;2012685;29;20065;-80
2022/08/12 06:19:18;;;;;;;3.90;2.60;;;23.60;48.30;;;;;;2020138;29;20130;-81
2022/08/12 06:20:20;;;;;;;4.27;2.20;;;23.60;48.30;;;;;;2012690;29;20041;-80
2022/08/12 06:21:22;;;;;;;7.85;2.67;;;23.60;48.30;;;;;;2011938;29;20037;-79
2022/08/12 06:22:25;;;;;;;5.03;2.55;;;23.60;48.40;;;;;;2012793;29;20042;-80
2022/08/12 06:23:27;;;;;;;7.93;3.58;;;23.60;48.30;;;;;;2025905;29;20032;-80
2022/08/12 06:24:28;;;;;;;5.95;2.90;;;23.60;48.40;;;;;;2019945;29;20128;-80
2022/08/12 06:25:29;;;;;;;8.18;2.53;;;23.60;48.30;;;;;;2005176;29;20133;-81
2022/08/12 06:26:33;;;;;;;5.57;2.95;;;23.60;48.40;;;;;;2015614;29;20097;-81
2022/08/12 06:27:47;;;;;;;8.15;3.10;;;23.60;48.40;;;;;;2019157;29;20048;-81
2022/08/12 06:28:49;;;;;;;6.70;2.80;;;23.60;48.50;;;;;;2020293;29;20700;-81
2022/08/12 06:29:51;;;;;;;10.52;2.85;;;23.60;48.50;;;;;;2005008;29;20284;-81
2022/08/12 06:30:52;;;;;;;4.30;2.53;;;23.60;48.50;;;;;;2004881;29;20284;-81
2022/08/12 06:31:53;;;;;;;4.05;2.85;;;23.60;48.50;;;;;;2004581;29;20101;-81
2022/08/12 06:32:54;;;;;;;6.50;2.57;;;23.60;48.70;;;;;;2004757;29;20026;-81
2022/08/12 06:33:55;;;;;;;5.80;2.50;;;23.60;48.60;;;;;;2012589;29;20042;-81
2022/08/12 06:34:56;;;;;;;5.40;2.70;;;23.60;48.50;;;;;;2011516;29;20078;-82
2022/08/12 06:35:57;;;;;;;4.53;2.83;;;23.60;48.60;;;;;;2004848;29;20034;-81
2022/08/12 06:36:57;;;;;;;5.00;2.70;;;23.60;48.60;;;;;;2011474;29;20132;-81
2022/08/12 06:37:58;;;;;;;4.37;2.80;;;23.60;48.70;;;;;;2011570;29;20484;-80
2022/08/12 06:38:59;;;;;;;8.20;3.03;;;23.60;48.60;;;;;;2019168;29;20025;-81
2022/08/12 06:40:00;;;;;;;5.67;2.50;;;23.70;48.60;;;;;;2013602;29;20081;-81
2022/08/12 06:43:42;;;;;;;6.18;3.00;;;23.70;48.50;;;;;;2019400;29;20029;-81
2022/08/12 06:44:43;;;;;;;8.50;2.88;;;23.70;48.50;;;;;;2019155;29;20367;-81
2022/08/12 06:45:46;;;;;;;6.40;2.40;;;23.60;48.50;;;;;;2011392;29;20033;-79
2022/08/12 06:46:46;;;;;;;6.80;2.70;;;23.60;48.60;;;;;;2019001;29;20025;-81
2022/08/12 06:47:47;;;;;;;8.20;2.50;;;23.60;48.60;;;;;;2024391;29;20260;-81
2022/08/12 06:48:49;;;;;;;7.88;2.65;;;23.60;48.60;;;;;;2026943;29;20516;-80
2022/08/12 06:49:51;;;;;;;8.38;2.65;;;23.60;48.70;;;;;;2027065;29;20043;-81
2022/08/12 06:50:53;;;;;;;4.82;2.50;;;23.60;48.80;;;;;;2019309;29;20021;-80
2022/08/12 06:51:54;;;;;;;5.30;2.63;;;23.70;48.80;;;;;;2012226;29;20061;-80
2022/08/12 06:52:55;;;;;;;4.85;2.83;;;23.60;48.70;;;;;;2020096;29;20351;-81
2022/08/12 06:53:57;;;;;;;6.67;2.20;;;23.60;48.70;;;;;;2020777;29;20057;-80
2022/08/12 06:54:58;;;;;;;3.92;2.42;;;23.60;48.70;;;;;;2011225;29;20033;-81
2022/08/12 06:56:00;;;;;;;5.47;2.35;;;23.60;48.80;;;;;;2012321;29;20269;-81
2022/08/12 06:57:01;;;;;;;6.25;2.60;;;23.60;48.80;;;;;;2004994;29;20066;-81
2022/08/12 06:58:04;;;;;;;5.00;2.80;;;23.60;48.90;;;;;;2012152;29;20044;-81
2022/08/12 06:59:05;;;;;;;4.18;2.53;;;23.60;49.00;;;;;;2012241;29;20033;-81
2022/08/12 07:00:07;;;;;;;13.57;3.57;;;23.60;49.00;;;;;;2014927;29;20282;-80
2022/08/12 07:01:08;;;;;;;7.07;2.33;;;23.60;49.00;;;;;;2012697;29;20119;-80
2022/08/12 07:02:08;;;;;;;4.73;2.50;;;23.60;48.90;;;;;;2004450;29;20874;-81